createdAt,value
2019-06-26T00:00:09.130Z,24.96
2019-06-26T00:02:37.572Z,24.90
2019-06-26T00:05:07.278Z,25.05
2019-06-26T00:07:36.044Z,25.15
2019-06-26T00:10:06.120Z,25.02
2019-06-26T00:12:34.582Z,25.02
2019-06-26T00:15:03.441Z,25.11
2019-06-26T00:17:31.880Z,25.14
2019-06-26T00:20:00.350Z,24.85
2019-06-26T00:22:28.805Z,24.92
2019-06-26T00:24:57.275Z,24.98
2019-06-26T00:27:26.099Z,24.80
2019-06-26T00:29:54.581Z,24.81
2019-06-26T00:32:23.074Z,24.92
2019-06-26T00:34:51.500Z,24.90
2019-06-26T00:37:20.194Z,24.71
2019-06-26T00:39:48.668Z,24.64
2019-06-26T00:42:17.099Z,24.73
2019-06-26T00:44:45.572Z,24.84
2019-06-26T00:47:14.042Z,24.71
2019-06-26T00:49:42.480Z,24.65
2019-06-26T00:52:10.914Z,24.54
2019-06-26T00:54:39.431Z,24.53
2019-06-26T00:57:07.844Z,24.54
2019-06-26T00:59:36.284Z,24.41
2019-06-26T01:02:04.740Z,24.33
2019-06-26T01:04:34.829Z,24.42
2019-06-26T01:07:03.286Z,24.38
2019-06-26T01:09:31.748Z,24.32
2019-06-26T01:12:00.230Z,24.23
2019-06-26T01:14:28.676Z,24.25
2019-06-26T01:16:57.152Z,24.15
2019-06-26T01:19:25.650Z,24.24
2019-06-26T01:21:54.070Z,24.18
2019-06-26T01:24:22.574Z,24.09
2019-06-26T01:26:51.006Z,24.24
2019-06-26T01:29:19.642Z,24.12
2019-06-26T01:31:48.096Z,23.89
2019-06-26T01:34:16.534Z,24.00
2019-06-26T01:36:45.005Z,23.94
2019-06-26T01:39:13.460Z,23.78
2019-06-26T01:41:41.874Z,23.77
2019-06-26T01:44:15.415Z,23.92
2019-06-26T01:46:40.497Z,23.78
2019-06-26T01:49:08.980Z,23.86
2019-06-26T01:51:37.436Z,23.83
2019-06-26T01:54:05.917Z,23.84
2019-06-26T01:56:34.701Z,23.58
2019-06-26T01:59:03.203Z,23.72
2019-06-26T02:01:31.658Z,23.75
2019-06-26T02:04:00.092Z,23.77
2019-06-26T02:06:28.973Z,23.75
2019-06-26T02:08:57.515Z,23.64
2019-06-26T02:11:25.942Z,23.60
2019-06-26T02:13:54.413Z,23.51
2019-06-26T02:16:22.878Z,23.44
2019-06-26T02:18:55.929Z,23.38
2019-06-26T02:21:24.380Z,23.62
2019-06-26T02:23:52.862Z,23.49
2019-06-26T02:26:21.298Z,23.44
2019-06-26T02:28:49.750Z,23.34
2019-06-26T02:31:18.208Z,23.39
2019-06-26T02:33:46.688Z,23.53
2019-06-26T02:36:15.211Z,23.49
2019-06-26T02:38:43.673Z,23.39
2019-06-26T02:41:12.106Z,23.43
2019-06-26T02:43:40.542Z,23.35
2019-06-26T02:46:09.003Z,23.36
2019-06-26T02:48:37.437Z,23.41
2019-06-26T02:51:05.907Z,23.29
2019-06-26T02:53:34.374Z,22.94
2019-06-26T02:56:02.840Z,23.14
2019-06-26T02:58:31.289Z,23.04
2019-06-26T03:00:59.751Z,23.10
2019-06-26T03:03:28.205Z,22.87
2019-06-26T03:05:56.726Z,23.07
2019-06-26T03:08:25.257Z,22.89
2019-06-26T03:10:53.696Z,23.03
2019-06-26T03:13:22.167Z,23.10
2019-06-26T03:15:51.012Z,23.26
2019-06-26T03:18:19.622Z,23.06
2019-06-26T03:20:51.140Z,23.04
2019-06-26T03:23:19.591Z,22.96
2019-06-26T03:25:48.360Z,23.09
2019-06-26T03:28:16.833Z,23.21
2019-06-26T03:30:45.301Z,23.22
2019-06-26T03:33:13.764Z,23.40
2019-06-26T03:35:42.473Z,23.53
2019-06-26T03:38:10.929Z,23.47
2019-06-26T03:40:39.364Z,23.46
2019-06-26T03:43:08.075Z,23.24
2019-06-26T03:45:36.589Z,23.27
2019-06-26T03:48:05.099Z,23.44
2019-06-26T03:50:33.577Z,23.62
2019-06-26T03:53:02.025Z,23.56
2019-06-26T03:55:30.455Z,23.46
2019-06-26T03:57:58.933Z,23.63
2019-06-26T04:00:39.515Z,23.68
2019-06-26T04:03:08.391Z,23.67
2019-06-26T04:05:37.029Z,23.84
2019-06-26T04:08:05.826Z,24.03
2019-06-26T04:10:35.727Z,24.17
2019-06-26T04:13:04.614Z,24.33
2019-06-26T04:15:42.086Z,24.51
2019-06-26T04:18:03.486Z,24.49
2019-06-26T04:20:31.857Z,24.54
2019-06-26T04:23:00.337Z,24.47
2019-06-26T04:25:28.786Z,24.66
2019-06-26T04:27:57.314Z,24.68
2019-06-26T04:30:25.922Z,24.75
2019-06-26T04:32:54.377Z,25.07
2019-06-26T04:35:22.837Z,25.20
2019-06-26T04:37:51.526Z,25.32
2019-06-26T04:40:20.539Z,25.58
2019-06-26T04:42:49.144Z,25.59
2019-06-26T04:45:18.792Z,25.52
2019-06-26T04:47:47.512Z,25.72
2019-06-26T04:50:16.779Z,25.73
2019-06-26T04:52:45.238Z,25.95
2019-06-26T04:55:13.984Z,25.91
2019-06-26T04:57:42.428Z,26.17
2019-06-26T05:00:13.737Z,26.17
2019-06-26T05:02:42.209Z,26.29
2019-06-26T05:05:11.289Z,26.44
2019-06-26T05:07:39.752Z,26.38
2019-06-26T05:10:10.113Z,26.65
2019-06-26T05:12:38.576Z,26.80
2019-06-26T05:15:10.595Z,26.68
2019-06-26T05:17:39.238Z,26.49
2019-06-26T05:20:08.537Z,26.75
2019-06-26T05:22:36.992Z,26.95
2019-06-26T05:25:08.913Z,27.05
2019-06-26T05:27:37.565Z,27.22
2019-06-26T05:30:09.777Z,27.26
2019-06-26T05:32:38.256Z,27.53
2019-06-26T05:35:10.615Z,27.34
2019-06-26T05:37:39.100Z,27.48
2019-06-26T05:40:12.051Z,27.47
2019-06-26T05:42:40.512Z,27.44
2019-06-26T05:45:09.789Z,27.75
2019-06-26T05:47:38.301Z,27.74
2019-06-26T05:50:07.701Z,27.79
2019-06-26T05:52:36.258Z,27.94
2019-06-26T05:55:06.358Z,28.05
2019-06-26T05:57:34.874Z,28.19
2019-06-26T06:00:05.194Z,28.32
2019-06-26T06:02:33.653Z,28.44
2019-06-26T06:05:02.159Z,28.39
2019-06-26T06:07:30.651Z,28.58
2019-06-26T06:09:59.083Z,28.60
2019-06-26T06:12:27.579Z,28.66
2019-06-26T06:14:56.017Z,28.53
2019-06-26T06:17:24.650Z,28.62
2019-06-26T06:19:53.119Z,28.62
2019-06-26T06:22:21.551Z,28.82
2019-06-26T06:24:50.018Z,28.90
2019-06-26T06:27:18.509Z,29.14
2019-06-26T06:29:46.982Z,29.31
2019-06-26T06:32:15.434Z,29.24
2019-06-26T06:34:44.001Z,29.50
2019-06-26T06:37:12.460Z,29.35
2019-06-26T06:39:40.978Z,29.57
2019-06-26T06:42:09.423Z,29.36
2019-06-26T06:44:37.890Z,29.60
2019-06-26T06:47:08.871Z,29.54
2019-06-26T06:49:36.606Z,29.67
2019-06-26T06:52:05.120Z,29.75
2019-06-26T06:54:33.571Z,29.93
2019-06-26T06:57:02.030Z,29.88
2019-06-26T06:59:30.524Z,30.09
2019-06-26T07:01:59.002Z,30.11
2019-06-26T07:04:27.469Z,30.23
2019-06-26T07:06:58.700Z,30.24
2019-06-26T07:09:26.212Z,30.08
2019-06-26T07:11:54.643Z,30.27
2019-06-26T07:14:23.132Z,30.40
2019-06-26T07:16:51.583Z,30.32
2019-06-26T07:19:20.055Z,30.68
2019-06-26T07:21:48.498Z,30.79
2019-06-26T07:24:16.969Z,30.86
2019-06-26T07:26:45.473Z,30.97
2019-06-26T07:29:14.033Z,31.11
2019-06-26T07:31:42.494Z,31.13
2019-06-26T07:34:10.946Z,31.19
2019-06-26T07:36:39.463Z,31.24
2019-06-26T07:39:07.946Z,31.45
2019-06-26T07:41:36.398Z,31.42
2019-06-26T07:44:05.230Z,31.43
2019-06-26T07:46:33.706Z,31.58
2019-06-26T07:49:02.186Z,31.61
2019-06-26T07:51:30.615Z,31.84
2019-06-26T07:53:59.154Z,31.96
2019-06-26T07:56:27.636Z,31.88
2019-06-26T07:58:56.381Z,31.88
2019-06-26T08:01:24.838Z,32.00
2019-06-26T08:03:53.284Z,32.11
2019-06-26T08:06:21.779Z,32.06
2019-06-26T08:08:50.244Z,32.29
2019-06-26T08:11:18.731Z,32.29
2019-06-26T08:13:47.181Z,32.44
2019-06-26T08:16:15.670Z,32.44
2019-06-26T08:18:44.118Z,32.34
2019-06-26T08:21:13.164Z,32.46
2019-06-26T08:23:41.765Z,32.52
2019-06-26T08:26:10.227Z,32.66
2019-06-26T08:28:38.696Z,32.72
2019-06-26T08:31:07.187Z,32.95
2019-06-26T08:33:35.633Z,32.98
2019-06-26T08:36:04.194Z,33.15
2019-06-26T08:38:32.639Z,33.08
2019-06-26T08:41:01.107Z,33.25
2019-06-26T08:43:31.455Z,33.44
2019-06-26T08:45:59.705Z,33.53
2019-06-26T08:48:39.588Z,33.55
2019-06-26T08:50:58.356Z,33.55
2019-06-26T08:53:26.820Z,33.58
2019-06-26T08:55:55.256Z,33.78
2019-06-26T08:58:23.718Z,33.80
2019-06-26T09:00:52.153Z,33.93
2019-06-26T09:03:20.625Z,33.97
2019-06-26T09:05:49.099Z,33.76
2019-06-26T09:08:17.913Z,33.82
2019-06-26T09:10:46.390Z,33.87
2019-06-26T09:13:14.857Z,33.88
2019-06-26T09:15:43.300Z,33.87
2019-06-26T09:18:11.749Z,33.77
2019-06-26T09:20:41.038Z,33.92
2019-06-26T09:23:09.505Z,33.79
2019-06-26T09:25:38.021Z,33.87
2019-06-26T09:28:06.984Z,34.13
2019-06-26T09:30:35.464Z,34.10
2019-06-26T09:33:04.285Z,34.37
2019-06-26T09:35:32.740Z,34.44
2019-06-26T09:38:01.277Z,34.46
2019-06-26T09:40:32.019Z,34.53
2019-06-26T09:42:59.918Z,34.58
2019-06-26T09:45:28.368Z,34.67
2019-06-26T09:47:56.851Z,34.66
2019-06-26T09:50:25.284Z,34.86
2019-06-26T09:52:53.737Z,35.01
2019-06-26T09:55:22.181Z,34.80
2019-06-26T09:57:50.613Z,34.82
2019-06-26T10:00:21.614Z,34.86
2019-06-26T10:02:50.482Z,34.95
2019-06-26T10:05:19.379Z,34.94
2019-06-26T10:07:47.810Z,35.09
2019-06-26T10:10:16.634Z,35.15
2019-06-26T10:12:45.089Z,35.00
2019-06-26T10:15:13.815Z,35.06
2019-06-26T10:17:42.249Z,35.05
2019-06-26T10:20:11.561Z,35.21
2019-06-26T10:22:39.997Z,35.39
2019-06-26T10:25:11.595Z,35.57
2019-06-26T10:27:40.282Z,35.46
2019-06-26T10:30:09.362Z,35.56
2019-06-26T10:32:37.827Z,35.60
2019-06-26T10:35:06.814Z,35.58
2019-06-26T10:37:35.264Z,35.59
2019-06-26T10:40:05.315Z,35.71
2019-06-26T10:42:33.744Z,35.77
2019-06-26T10:45:02.232Z,35.80
2019-06-26T10:47:30.713Z,35.73
2019-06-26T10:49:59.199Z,35.78
2019-06-26T10:52:27.860Z,36.00
2019-06-26T10:54:56.305Z,35.94
2019-06-26T10:57:24.751Z,36.03
2019-06-26T10:59:55.685Z,36.02
2019-06-26T11:02:23.404Z,36.07
2019-06-26T11:04:51.952Z,35.98
2019-06-26T11:07:20.386Z,35.91
2019-06-26T11:09:48.860Z,35.93
2019-06-26T11:12:17.334Z,35.99
2019-06-26T11:14:45.805Z,36.00
2019-06-26T11:17:14.294Z,35.99
2019-06-26T11:19:44.510Z,36.03
2019-06-26T11:22:12.898Z,36.17
2019-06-26T11:24:41.488Z,36.33
2019-06-26T11:27:09.895Z,36.39
2019-06-26T11:29:38.370Z,36.35
2019-06-26T11:32:09.445Z,36.52
2019-06-26T11:34:37.045Z,36.72
2019-06-26T11:37:05.486Z,36.51
2019-06-26T11:39:33.939Z,36.61
2019-06-26T11:42:02.392Z,36.75
2019-06-26T11:44:30.850Z,36.97
2019-06-26T11:46:59.327Z,37.15
2019-06-26T11:49:27.765Z,37.34
2019-06-26T11:51:56.247Z,37.58
2019-06-26T11:54:24.703Z,37.88
2019-06-26T11:56:53.163Z,37.94
2019-06-26T11:59:21.606Z,37.51
2019-06-26T12:01:50.122Z,37.37
2019-06-26T12:04:18.563Z,37.56
2019-06-26T12:06:47.032Z,37.34
2019-06-26T12:09:15.511Z,37.40
2019-06-26T12:11:45.470Z,37.50
2019-06-26T12:14:13.945Z,37.40
2019-06-26T12:16:42.506Z,37.63
2019-06-26T12:19:10.923Z,37.16
2019-06-26T12:21:39.392Z,37.40
2019-06-26T12:24:07.836Z,37.36
2019-06-26T12:26:37.971Z,37.48
2019-06-26T12:29:06.433Z,37.65
2019-06-26T12:31:34.924Z,37.72
2019-06-26T12:34:03.502Z,37.42
2019-06-26T12:36:32.149Z,37.52
2019-06-26T12:39:00.644Z,37.69
2019-06-26T12:41:29.156Z,37.78
2019-06-26T12:43:57.567Z,37.57
2019-06-26T12:46:26.100Z,37.27
2019-06-26T12:48:54.536Z,37.54
2019-06-26T12:51:22.974Z,37.48
2019-06-26T12:53:51.528Z,37.20
2019-06-26T12:56:19.988Z,37.25
2019-06-26T12:58:48.426Z,37.13
2019-06-26T13:01:16.942Z,37.41
2019-06-26T13:03:45.428Z,37.37
2019-06-26T13:06:13.886Z,37.59
2019-06-26T13:08:42.348Z,37.57
2019-06-26T13:11:10.826Z,37.36
2019-06-26T13:13:39.266Z,37.06
2019-06-26T13:16:07.734Z,36.92
2019-06-26T13:18:36.192Z,36.62
2019-06-26T13:21:05.414Z,36.32
2019-06-26T13:23:34.150Z,36.08
2019-06-26T13:26:02.569Z,36.39
2019-06-26T13:28:31.029Z,36.43
2019-06-26T13:30:59.491Z,36.42
2019-06-26T13:33:27.960Z,36.57
2019-06-26T13:35:56.443Z,36.69
2019-06-26T13:38:27.209Z,36.75
2019-06-26T13:40:55.090Z,36.74
2019-06-26T13:43:23.524Z,36.86
2019-06-26T13:45:51.990Z,36.81
2019-06-26T13:48:20.417Z,36.72
2019-06-26T13:50:48.922Z,36.67
2019-06-26T13:53:17.361Z,36.71
2019-06-26T13:55:48.101Z,36.71
2019-06-26T13:58:16.605Z,36.65
2019-06-26T14:00:45.243Z,36.77
2019-06-26T14:03:13.700Z,36.68
2019-06-26T14:05:42.130Z,36.71
2019-06-26T14:08:10.605Z,36.84
2019-06-26T14:10:39.071Z,36.81
2019-06-26T14:13:07.553Z,36.91
2019-06-26T14:15:36.000Z,36.72
2019-06-26T14:18:04.731Z,36.64
2019-06-26T14:20:33.180Z,36.56
2019-06-26T14:23:01.635Z,36.36
2019-06-26T14:25:30.082Z,36.55
2019-06-26T14:27:58.528Z,36.55
2019-06-26T14:30:28.092Z,36.65
2019-06-26T14:32:56.674Z,36.81
2019-06-26T14:35:25.116Z,36.68
2019-06-26T14:37:53.608Z,36.42
2019-06-26T14:40:22.287Z,36.47
2019-06-26T14:42:50.748Z,36.60
2019-06-26T14:45:20.041Z,36.59
2019-06-26T14:47:48.476Z,36.80
2019-06-26T14:50:18.464Z,37.01
2019-06-26T14:52:46.920Z,37.07
2019-06-26T14:55:15.537Z,37.08
2019-06-26T14:57:44.191Z,36.88
2019-06-26T15:00:13.298Z,36.99
2019-06-26T15:02:41.768Z,37.13
2019-06-26T15:05:10.782Z,37.15
2019-06-26T15:07:39.311Z,37.17
2019-06-26T15:10:09.047Z,37.10
2019-06-26T15:12:37.502Z,36.89
2019-06-26T15:15:06.816Z,36.52
2019-06-26T15:17:35.287Z,36.64
2019-06-26T15:20:04.707Z,36.82
2019-06-26T15:22:33.175Z,36.56
2019-06-26T15:25:01.676Z,36.44
2019-06-26T15:27:30.147Z,36.34
2019-06-26T15:29:58.690Z,36.29
2019-06-26T15:32:27.135Z,36.48
2019-06-26T15:34:55.621Z,36.84
2019-06-26T15:37:24.733Z,36.93
2019-06-26T15:39:53.165Z,37.25
2019-06-26T15:42:21.638Z,36.75
2019-06-26T15:44:50.113Z,36.69
2019-06-26T15:47:18.595Z,36.93
2019-06-26T15:49:47.041Z,37.36
2019-06-26T15:52:15.748Z,37.85
2019-06-26T15:54:44.338Z,38.41
2019-06-26T15:57:12.841Z,38.22
2019-06-26T15:59:41.271Z,38.03
2019-06-26T16:02:09.707Z,37.92
2019-06-26T16:04:38.235Z,37.88
2019-06-26T16:07:06.801Z,37.68
2019-06-26T16:09:35.271Z,37.72
2019-06-26T16:12:03.733Z,37.76
2019-06-26T16:14:32.198Z,37.72
2019-06-26T16:17:08.592Z,38.04
2019-06-26T16:19:51.638Z,37.89
2019-06-26T16:22:31.582Z,37.69
2019-06-26T16:24:50.351Z,38.15
2019-06-26T16:27:18.817Z,37.87
2019-06-26T16:29:48.652Z,38.26
2019-06-26T16:32:17.294Z,38.04
2019-06-26T16:34:45.793Z,38.19
2019-06-26T16:37:14.246Z,37.85
2019-06-26T16:39:42.685Z,38.04
2019-06-26T16:42:11.177Z,37.75
2019-06-26T16:44:39.629Z,37.43
2019-06-26T16:47:08.092Z,37.72
2019-06-26T16:49:36.518Z,38.06
2019-06-26T16:52:04.985Z,37.99
2019-06-26T16:54:33.456Z,37.63
2019-06-26T16:57:01.926Z,37.42
2019-06-26T16:59:30.423Z,37.44
2019-06-26T17:01:59.126Z,37.42
2019-06-26T17:04:27.582Z,37.78
2019-06-26T17:06:56.011Z,37.30
2019-06-26T17:09:24.490Z,36.96
2019-06-26T17:11:52.966Z,36.21
2019-06-26T17:14:21.445Z,35.63
2019-06-26T17:16:49.891Z,35.24
2019-06-26T17:19:18.666Z,34.95
2019-06-26T17:21:47.199Z,34.93
2019-06-26T17:24:15.653Z,34.83
2019-06-26T17:26:44.118Z,34.79
2019-06-26T17:29:12.928Z,34.60
2019-06-26T17:31:41.392Z,34.42
2019-06-26T17:34:09.841Z,34.39
2019-06-26T17:36:38.287Z,34.48
2019-06-26T17:39:07.631Z,34.35
2019-06-26T17:41:36.074Z,34.18
2019-06-26T17:44:04.792Z,33.92
2019-06-26T17:46:33.408Z,33.81
2019-06-26T17:49:01.863Z,33.75
2019-06-26T17:51:30.300Z,33.68
2019-06-26T17:53:58.794Z,33.48
2019-06-26T17:56:27.222Z,33.48
2019-06-26T17:58:55.664Z,33.58
2019-06-26T18:01:24.117Z,33.23
2019-06-26T18:03:52.554Z,33.15
2019-06-26T18:06:21.022Z,33.24
2019-06-26T18:08:49.482Z,33.07
2019-06-26T18:11:17.905Z,33.05
2019-06-26T18:13:46.382Z,33.13
2019-06-26T18:16:14.879Z,33.09
2019-06-26T18:18:45.236Z,33.05
2019-06-26T18:21:13.750Z,32.89
2019-06-26T18:23:42.341Z,32.68
2019-06-26T18:26:13.516Z,32.61
2019-06-26T18:28:40.970Z,32.58
2019-06-26T18:31:09.441Z,32.53
2019-06-26T18:33:38.182Z,32.52
2019-06-26T18:36:06.635Z,32.26
2019-06-26T18:38:36.337Z,32.26
2019-06-26T18:41:04.811Z,32.26
2019-06-26T18:43:33.271Z,32.26
2019-06-26T18:46:01.766Z,32.15
2019-06-26T18:48:30.250Z,32.06
2019-06-26T18:50:58.677Z,32.06
2019-06-26T18:53:27.136Z,31.94
2019-06-26T18:55:55.668Z,31.87
2019-06-26T18:58:24.118Z,31.76
2019-06-26T19:00:52.596Z,31.75
2019-06-26T19:03:21.122Z,31.74
2019-06-26T19:05:49.554Z,31.79
2019-06-26T19:08:18.006Z,31.63
2019-06-26T19:10:46.522Z,31.57
2019-06-26T19:13:14.962Z,31.45
2019-06-26T19:15:43.749Z,31.24
2019-06-26T19:18:12.187Z,31.21
2019-06-26T19:20:40.703Z,30.99
2019-06-26T19:23:09.161Z,30.83
2019-06-26T19:25:37.620Z,30.86
2019-06-26T19:28:06.060Z,30.83
2019-06-26T19:30:34.508Z,30.59
2019-06-26T19:33:03.010Z,30.54
2019-06-26T19:35:31.513Z,30.52
2019-06-26T19:37:59.981Z,30.47
2019-06-26T19:40:28.420Z,30.38
2019-06-26T19:42:56.944Z,30.26
2019-06-26T19:45:25.425Z,30.19
2019-06-26T19:47:53.871Z,30.06
2019-06-26T19:50:23.638Z,30.02
2019-06-26T19:52:52.266Z,29.97
2019-06-26T19:55:20.954Z,29.91
2019-06-26T19:57:49.865Z,29.87
2019-06-26T20:00:18.590Z,29.82
2019-06-26T20:02:47.057Z,29.68
2019-06-26T20:05:15.870Z,29.62
2019-06-26T20:07:44.303Z,29.62
2019-06-26T20:10:13.477Z,29.59
2019-06-26T20:12:41.939Z,29.49
2019-06-26T20:15:11.984Z,29.54
2019-06-26T20:17:40.669Z,29.46
2019-06-26T20:20:11.112Z,29.27
2019-06-26T20:22:39.587Z,29.22
2019-06-26T20:25:08.876Z,29.09
2019-06-26T20:27:37.451Z,28.94
2019-06-26T20:30:09.558Z,28.95
2019-06-26T20:32:36.941Z,28.90
2019-06-26T20:35:07.093Z,28.81
2019-06-26T20:37:35.912Z,28.70
2019-06-26T20:40:06.857Z,28.70
2019-06-26T20:42:35.289Z,28.66
2019-06-26T20:45:05.372Z,28.76
2019-06-26T20:47:33.828Z,28.68
2019-06-26T20:50:02.430Z,28.60
2019-06-26T20:52:31.135Z,28.55
2019-06-26T20:55:01.964Z,28.38
2019-06-26T20:57:31.419Z,28.37
2019-06-26T20:59:59.912Z,28.23
2019-06-26T21:02:28.370Z,28.16
2019-06-26T21:04:56.874Z,28.07
2019-06-26T21:07:25.589Z,28.03
2019-06-26T21:09:54.235Z,28.01
2019-06-26T21:12:22.678Z,28.01
2019-06-26T21:14:51.123Z,27.96
2019-06-26T21:17:19.586Z,27.87
2019-06-26T21:19:48.422Z,27.72
2019-06-26T21:22:16.943Z,27.65
2019-06-26T21:24:45.375Z,27.65
2019-06-26T21:27:13.801Z,27.59
2019-06-26T21:29:43.126Z,27.66
2019-06-26T21:32:11.527Z,27.60
2019-06-26T21:34:39.988Z,27.60
2019-06-26T21:37:08.441Z,27.34
2019-06-26T21:39:36.936Z,27.34
2019-06-26T21:42:05.473Z,27.20
2019-06-26T21:44:33.931Z,27.10
2019-06-26T21:47:02.419Z,27.06
2019-06-26T21:49:30.864Z,26.92
2019-06-26T21:51:59.386Z,26.91
2019-06-26T21:54:27.871Z,26.76
2019-06-26T21:56:56.331Z,26.82
2019-06-26T21:59:24.905Z,26.62
2019-06-26T22:01:53.354Z,26.53
2019-06-26T22:04:22.191Z,26.48
2019-06-26T22:06:50.709Z,26.31
2019-06-26T22:09:19.186Z,26.31
2019-06-26T22:11:47.680Z,26.30
2019-06-26T22:14:16.143Z,26.28
2019-06-26T22:16:44.662Z,26.17
2019-06-26T22:19:13.159Z,26.04
2019-06-26T22:21:41.643Z,25.98
2019-06-26T22:24:10.282Z,25.88
2019-06-26T22:26:38.759Z,25.92
2019-06-26T22:29:07.211Z,25.89
2019-06-26T22:31:35.687Z,25.81
2019-06-26T22:34:04.151Z,25.72
2019-06-26T22:36:32.602Z,25.66
2019-06-26T22:39:01.075Z,25.52
2019-06-26T22:41:29.514Z,25.40
2019-06-26T22:43:57.960Z,25.29
2019-06-26T22:46:26.432Z,25.26
2019-06-26T22:48:54.857Z,25.11
2019-06-26T22:51:23.427Z,25.04
2019-06-26T22:53:51.851Z,24.97
2019-06-26T22:56:20.408Z,24.93
2019-06-26T22:58:48.883Z,24.89
2019-06-26T23:01:17.367Z,24.76
2019-06-26T23:03:45.854Z,24.71
2019-06-26T23:06:14.344Z,24.77
2019-06-26T23:08:42.760Z,24.73
2019-06-26T23:11:11.182Z,24.72
2019-06-26T23:13:39.644Z,24.60
2019-06-26T23:16:08.155Z,24.46
2019-06-26T23:18:36.631Z,24.52
2019-06-26T23:21:05.066Z,24.45
2019-06-26T23:23:33.543Z,24.31
2019-06-26T23:26:01.983Z,24.18
2019-06-26T23:28:30.439Z,24.10
2019-06-26T23:30:58.899Z,24.05
2019-06-26T23:33:27.333Z,23.95
2019-06-26T23:35:55.867Z,23.93
2019-06-26T23:38:24.302Z,23.88
2019-06-26T23:40:52.790Z,23.63
2019-06-26T23:43:21.260Z,23.73
2019-06-26T23:45:49.719Z,23.72
2019-06-26T23:48:18.214Z,23.49
2019-06-26T23:50:46.826Z,23.41
2019-06-26T23:53:15.253Z,23.41
2019-06-26T23:55:43.707Z,23.38
2019-06-26T23:58:12.375Z,23.41
